EXS36AM EGNT-LEMH
Flight info
| Callsign | EXS36AM |
|---|---|
| Flight time | N/A |
| Altitude | 36000 |
| Route | GIRLI P18 GASKO P16 RIBEL UP16 CROFT UL612 HON DCT SITET UN859 SOPIL DCT BALAN DCT EVPOK DCT NARAK DCT GAI DCT LOMRA DCT ROCAN DCT GEANT DCT GIR DCT SALON DCT SULID DCT DIPES N727 SARGO |
| Aircraft | B738/M-SDFGIJ1RWYZ/LB1 |
Departure
| Time | N/A |
|---|---|
| Airport | Newcastle International Airport (EGNT) |
Arrival
| Time | 2026-04-30 19:50 |
|---|---|
| Airport | Menorca Airport (LEMH) |
| Time | Latitude | Longitude | Altitude | Speed | Heading |
|---|---|---|---|---|---|
| 2026-04-30 17:39 | 52.69704 | -1.89296 | 37177 ft | 406 kts | 157° |
| 2026-04-30 17:42 | 52.43496 | -1.71617 | 37189 ft | 407 kts | 157° |
| 2026-04-30 17:43 | 52.30536 | -1.62533 | 37187 ft | 405 kts | 154° |
| 2026-04-30 17:44 | 52.15266 | -1.50584 | 37238 ft | 406 kts | 154° |
| 2026-04-30 17:47 | 51.92240 | -1.32935 | 37159 ft | 409 kts | 154° |
| 2026-04-30 17:48 | 51.74114 | -1.19185 | 37158 ft | 411 kts | 155° |
| 2026-04-30 17:50 | 51.53384 | -1.03610 | 37156 ft | 412 kts | 155° |
| 2026-04-30 17:52 | 51.37805 | -0.92008 | 37157 ft | 412 kts | 155° |
| 2026-04-30 17:54 | 51.14428 | -0.74760 | 37159 ft | 411 kts | 155° |
| 2026-04-30 17:56 | 50.93659 | -0.59599 | 37153 ft | 411 kts | 155° |
| 2026-04-30 17:58 | 50.78063 | -0.48311 | 37155 ft | 411 kts | 155° |
| 2026-04-30 18:00 | 50.57251 | -0.33378 | 37153 ft | 412 kts | 155° |
| 2026-04-30 18:01 | 50.44194 | -0.24083 | 37141 ft | 413 kts | 155° |
| 2026-04-30 18:02 | 50.28440 | -0.12942 | 37130 ft | 415 kts | 155° |
| 2026-04-30 18:04 | 50.12658 | -0.01860 | 37126 ft | 416 kts | 155° |
| 2026-04-30 18:06 | 49.90346 | 0.07712 | 37114 ft | 416 kts | 165° |
| 2026-04-30 18:08 | 49.70671 | 0.15380 | 37107 ft | 417 kts | 165° |
| 2026-04-30 18:10 | 49.48173 | 0.24442 | 37104 ft | 419 kts | 165° |
| 2026-04-30 18:11 | 49.28415 | 0.32399 | 37125 ft | 421 kts | 164° |
| 2026-04-30 18:13 | 49.14302 | 0.38355 | 37114 ft | 421 kts | 164° |
| 2026-04-30 18:14 | 49.00214 | 0.44243 | 37105 ft | 421 kts | 164° |
| 2026-04-30 18:15 | 48.83282 | 0.51271 | 37105 ft | 421 kts | 164° |
| 2026-04-30 18:16 | 48.71951 | 0.55821 | 37111 ft | 421 kts | 165° |
| 2026-04-30 18:17 | 48.66267 | 0.58024 | 37109 ft | 421 kts | 165° |
| 2026-04-30 18:18 | 48.57780 | 0.61330 | 37107 ft | 422 kts | 165° |
| 2026-04-30 18:18 | 48.52097 | 0.63539 | 37106 ft | 422 kts | 165° |
| 2026-04-30 18:19 | 48.46402 | 0.65832 | 37104 ft | 423 kts | 164° |
| 2026-04-30 18:19 | 48.40718 | 0.68158 | 37100 ft | 423 kts | 164° |
| 2026-04-30 18:20 | 48.35048 | 0.70462 | 37105 ft | 424 kts | 164° |
| 2026-04-30 18:20 | 48.30290 | 0.72386 | 37098 ft | 424 kts | 164° |
| 2026-04-30 18:21 | 48.23646 | 0.75060 | 37100 ft | 425 kts | 165° |
| 2026-04-30 18:21 | 48.18860 | 0.76949 | 37098 ft | 425 kts | 165° |
| 2026-04-30 18:22 | 48.13139 | 0.79193 | 37100 ft | 426 kts | 165° |
| 2026-04-30 18:22 | 48.04559 | 0.82557 | 37098 ft | 426 kts | 165° |
| 2026-04-30 18:23 | 47.98797 | 0.84813 | 37102 ft | 427 kts | 165° |
| 2026-04-30 18:23 | 47.93070 | 0.87050 | 37098 ft | 427 kts | 165° |
| 2026-04-30 18:24 | 47.84444 | 0.90409 | 37101 ft | 427 kts | 165° |
| 2026-04-30 18:25 | 47.78721 | 0.92628 | 37099 ft | 427 kts | 165° |
| 2026-04-30 18:25 | 47.70107 | 0.95955 | 37109 ft | 426 kts | 165° |
| 2026-04-30 18:26 | 47.61506 | 0.99268 | 37115 ft | 425 kts | 165° |
| 2026-04-30 18:27 | 47.52921 | 1.02565 | 37123 ft | 425 kts | 165° |
| 2026-04-30 18:28 | 47.44354 | 1.05824 | 37120 ft | 425 kts | 167° |
| 2026-04-30 18:28 | 47.35504 | 1.06347 | 37120 ft | 426 kts | 180° |
| 2026-04-30 18:29 | 47.23665 | 1.05967 | 37126 ft | 426 kts | 180° |
| 2026-04-30 18:30 | 47.11816 | 1.05704 | 37126 ft | 427 kts | 180° |
| 2026-04-30 18:31 | 47.02909 | 1.05507 | 37126 ft | 427 kts | 180° |
| 2026-04-30 18:32 | 46.93996 | 1.05152 | 37125 ft | 428 kts | 181° |
| 2026-04-30 18:33 | 46.85045 | 1.04740 | 37124 ft | 428 kts | 181° |
| 2026-04-30 18:33 | 46.76134 | 1.04353 | 37126 ft | 428 kts | 181° |
| 2026-04-30 18:34 | 46.67202 | 1.03969 | 37126 ft | 428 kts | 181° |
| 2026-04-30 18:35 | 46.61245 | 1.03713 | 37131 ft | 429 kts | 181° |
| 2026-04-30 18:35 | 46.55271 | 1.03457 | 37130 ft | 429 kts | 181° |
| 2026-04-30 18:36 | 46.49313 | 1.03916 | 37122 ft | 428 kts | 167° |
| 2026-04-30 18:36 | 46.46433 | 1.04883 | 37144 ft | 428 kts | 166° |
| 2026-04-30 18:37 | 46.37718 | 1.07910 | 37136 ft | 429 kts | 167° |
| 2026-04-30 18:37 | 46.31900 | 1.09881 | 37139 ft | 430 kts | 167° |
| 2026-04-30 18:38 | 46.26069 | 1.11826 | 37141 ft | 430 kts | 167° |
| 2026-04-30 18:38 | 46.20260 | 1.13754 | 37145 ft | 430 kts | 167° |
| 2026-04-30 18:39 | 46.14419 | 1.15688 | 37151 ft | 430 kts | 167° |
| 2026-04-30 18:39 | 46.08587 | 1.17616 | 37151 ft | 431 kts | 167° |
| 2026-04-30 18:40 | 46.02740 | 1.19545 | 37153 ft | 430 kts | 167° |
| 2026-04-30 18:40 | 45.96914 | 1.21463 | 37157 ft | 430 kts | 168° |
| 2026-04-30 18:41 | 45.91073 | 1.23381 | 37156 ft | 430 kts | 168° |
| 2026-04-30 18:41 | 45.85241 | 1.25293 | 37161 ft | 430 kts | 168° |
| 2026-04-30 18:42 | 45.79377 | 1.27211 | 37177 ft | 432 kts | 168° |
| 2026-04-30 18:42 | 45.73499 | 1.29129 | 37599 ft | 432 kts | 168° |
| 2026-04-30 18:42 | 45.70600 | 1.30074 | 37875 ft | 430 kts | 168° |
| 2026-04-30 18:45 | 45.41264 | 1.39577 | 39157 ft | 437 kts | 168° |
| 2026-04-30 18:45 | 45.38297 | 1.40532 | 39159 ft | 438 kts | 168° |
| 2026-04-30 18:46 | 45.32345 | 1.42447 | 39156 ft | 439 kts | 168° |
| 2026-04-30 18:46 | 45.26355 | 1.44370 | 39157 ft | 440 kts | 169° |
| 2026-04-30 18:47 | 45.20401 | 1.46277 | 39154 ft | 440 kts | 169° |
| 2026-04-30 18:47 | 45.14454 | 1.48178 | 39154 ft | 439 kts | 169° |
| 2026-04-30 18:48 | 45.08486 | 1.50082 | 39155 ft | 438 kts | 169° |
| 2026-04-30 18:48 | 45.02539 | 1.51975 | 39151 ft | 437 kts | 169° |
| 2026-04-30 18:49 | 44.96630 | 1.53852 | 39152 ft | 436 kts | 169° |
| 2026-04-30 18:49 | 44.90709 | 1.55728 | 39153 ft | 435 kts | 170° |
| 2026-04-30 18:50 | 44.84797 | 1.57598 | 39147 ft | 435 kts | 170° |
| 2026-04-30 18:50 | 44.78906 | 1.59457 | 39151 ft | 435 kts | 170° |
| 2026-04-30 18:51 | 44.72981 | 1.61322 | 39146 ft | 435 kts | 170° |
| 2026-04-30 18:51 | 44.67103 | 1.63170 | 39145 ft | 435 kts | 170° |
| 2026-04-30 18:52 | 44.61168 | 1.65031 | 39147 ft | 436 kts | 170° |
| 2026-04-30 18:52 | 44.55270 | 1.66877 | 39150 ft | 436 kts | 171° |
| 2026-04-30 18:53 | 44.49322 | 1.68735 | 39142 ft | 437 kts | 171° |
| 2026-04-30 18:53 | 44.43411 | 1.70577 | 39153 ft | 438 kts | 171° |
| 2026-04-30 18:54 | 44.37438 | 1.72436 | 39145 ft | 439 kts | 171° |
| 2026-04-30 18:54 | 44.31448 | 1.74295 | 39150 ft | 440 kts | 171° |
| 2026-04-30 18:55 | 44.25472 | 1.75911 | 39147 ft | 439 kts | 174° |
| 2026-04-30 18:55 | 44.16428 | 1.77809 | 39156 ft | 440 kts | 175° |
| 2026-04-30 18:56 | 44.07355 | 1.79776 | 39153 ft | 440 kts | 175° |
| 2026-04-30 18:57 | 43.98260 | 1.81774 | 39152 ft | 440 kts | 175° |
| 2026-04-30 18:57 | 43.92193 | 1.82835 | 39152 ft | 437 kts | 180° |
| 2026-04-30 18:58 | 43.83117 | 1.83646 | 39148 ft | 435 kts | 181° |
| 2026-04-30 18:59 | 43.74091 | 1.84473 | 39140 ft | 435 kts | 181° |
| 2026-04-30 19:00 | 43.62015 | 1.85643 | 39136 ft | 434 kts | 181° |
| 2026-04-30 19:01 | 43.49990 | 1.86803 | 39138 ft | 433 kts | 181° |
| 2026-04-30 19:02 | 43.40980 | 1.87669 | 39133 ft | 433 kts | 181° |
| 2026-04-30 19:03 | 43.28924 | 1.88826 | 39140 ft | 432 kts | 181° |
| 2026-04-30 19:04 | 43.16925 | 1.89979 | 39142 ft | 433 kts | 181° |
| 2026-04-30 19:05 | 43.05866 | 1.91037 | 39147 ft | 434 kts | 181° |
| 2026-04-30 19:06 | 42.93788 | 1.92189 | 39143 ft | 435 kts | 181° |
| 2026-04-30 19:06 | 42.84728 | 1.93051 | 39148 ft | 436 kts | 181° |
| 2026-04-30 19:07 | 42.75639 | 1.93912 | 39145 ft | 436 kts | 181° |
| 2026-04-30 19:08 | 42.64001 | 1.98201 | 39153 ft | 453 kts | 146° |
| 2026-04-30 19:09 | 42.56728 | 2.06501 | 39152 ft | 454 kts | 143° |
| 2026-04-30 19:09 | 42.51915 | 2.11975 | 39161 ft | 453 kts | 144° |
| 2026-04-30 19:10 | 42.42141 | 2.22890 | 39164 ft | 455 kts | 144° |
| 2026-04-30 19:11 | 42.39703 | 2.25610 | 38953 ft | 460 kts | 144° |
| 2026-04-30 19:11 | 42.34766 | 2.31121 | 38272 ft | 459 kts | 144° |
| 2026-04-30 19:11 | 42.32293 | 2.33881 | 37765 ft | 457 kts | 144° |
| 2026-04-30 19:12 | 42.29860 | 2.36593 | 37224 ft | 456 kts | 144° |
| 2026-04-30 19:12 | 42.27406 | 2.39325 | 36835 ft | 452 kts | 145° |
| 2026-04-30 19:12 | 42.24975 | 2.42029 | 36423 ft | 448 kts | 145° |
| 2026-04-30 19:13 | 42.20230 | 2.47296 | 35651 ft | 442 kts | 145° |
| 2026-04-30 19:13 | 42.15483 | 2.52552 | 34872 ft | 437 kts | 145° |
| 2026-04-30 19:13 | 42.13151 | 2.55130 | 34483 ft | 435 kts | 145° |
| 2026-04-30 19:14 | 42.10800 | 2.57727 | 34095 ft | 433 kts | 145° |
| 2026-04-30 19:14 | 42.08489 | 2.60276 | 33667 ft | 431 kts | 145° |
| 2026-04-30 19:14 | 42.06185 | 2.62817 | 33271 ft | 428 kts | 145° |
| 2026-04-30 19:14 | 42.03868 | 2.65369 | 32855 ft | 426 kts | 145° |
| 2026-04-30 19:15 | 42.01585 | 2.67882 | 32473 ft | 423 kts | 145° |
| 2026-04-30 19:15 | 41.97071 | 2.72844 | 31742 ft | 418 kts | 145° |
| 2026-04-30 19:15 | 41.94815 | 2.75319 | 31373 ft | 416 kts | 145° |
| 2026-04-30 19:16 | 41.92546 | 2.77778 | 31022 ft | 412 kts | 147° |
| 2026-04-30 19:16 | 41.90283 | 2.80039 | 30747 ft | 406 kts | 149° |
| 2026-04-30 19:16 | 41.85676 | 2.84398 | 30198 ft | 407 kts | 150° |
| 2026-04-30 19:17 | 41.83358 | 2.86573 | 29868 ft | 411 kts | 149° |
| 2026-04-30 19:17 | 41.78687 | 2.90994 | 29248 ft | 405 kts | 149° |
| 2026-04-30 19:17 | 41.76415 | 2.93159 | 28969 ft | 401 kts | 149° |
| 2026-04-30 19:18 | 41.72669 | 2.96729 | 28503 ft | 395 kts | 149° |
| 2026-04-30 19:18 | 41.69687 | 2.99568 | 28126 ft | 392 kts | 149° |
| 2026-04-30 19:18 | 41.67467 | 3.01680 | 27852 ft | 389 kts | 149° |
| 2026-04-30 19:19 | 41.65274 | 3.03763 | 27575 ft | 387 kts | 149° |
| 2026-04-30 19:19 | 41.63100 | 3.05827 | 27310 ft | 385 kts | 149° |
| 2026-04-30 19:19 | 41.58749 | 3.09951 | 26775 ft | 382 kts | 148° |
| 2026-04-30 19:20 | 41.56568 | 3.12016 | 26504 ft | 381 kts | 148° |
| 2026-04-30 19:20 | 41.54415 | 3.14055 | 26232 ft | 380 kts | 148° |
| 2026-04-30 19:20 | 41.50109 | 3.18123 | 25713 ft | 378 kts | 148° |
| 2026-04-30 19:21 | 41.47918 | 3.20089 | 25448 ft | 376 kts | 151° |
| 2026-04-30 19:21 | 41.43498 | 3.23702 | 24928 ft | 373 kts | 152° |
| 2026-04-30 19:22 | 41.39072 | 3.27267 | 24409 ft | 371 kts | 152° |
| 2026-04-30 19:22 | 41.32507 | 3.32609 | 23620 ft | 365 kts | 151° |
| 2026-04-30 19:23 | 41.25992 | 3.37922 | 22767 ft | 358 kts | 151° |
| 2026-04-30 19:24 | 41.21779 | 3.41353 | 22262 ft | 353 kts | 151° |
| 2026-04-30 19:24 | 41.19692 | 3.43049 | 22014 ft | 350 kts | 151° |
| 2026-04-30 19:24 | 41.15552 | 3.46426 | 21522 ft | 346 kts | 151° |
| 2026-04-30 19:25 | 41.09450 | 3.51425 | 20808 ft | 342 kts | 150° |
| 2026-04-30 19:26 | 41.05403 | 3.54727 | 20327 ft | 341 kts | 151° |
| 2026-04-30 19:26 | 41.01362 | 3.58000 | 19847 ft | 340 kts | 151° |
| 2026-04-30 19:26 | 40.99352 | 3.59624 | 19607 ft | 340 kts | 151° |
| 2026-04-30 19:27 | 40.95305 | 3.62893 | 19142 ft | 339 kts | 151° |
| 2026-04-30 19:27 | 40.91276 | 3.66144 | 18660 ft | 338 kts | 150° |
| 2026-04-30 19:28 | 40.89284 | 3.67750 | 18424 ft | 337 kts | 151° |
| 2026-04-30 19:28 | 40.85291 | 3.70967 | 17893 ft | 334 kts | 151° |
| 2026-04-30 19:29 | 40.81357 | 3.74132 | 17411 ft | 330 kts | 151° |
| 2026-04-30 19:29 | 40.79414 | 3.75692 | 17177 ft | 328 kts | 151° |
| 2026-04-30 19:30 | 40.73602 | 3.80357 | 16492 ft | 322 kts | 151° |
| 2026-04-30 19:30 | 40.69778 | 3.83420 | 16037 ft | 320 kts | 151° |
| 2026-04-30 19:31 | 40.66000 | 3.86441 | 15598 ft | 318 kts | 151° |
| 2026-04-30 19:31 | 40.64123 | 3.87942 | 15378 ft | 317 kts | 151° |
| 2026-04-30 19:31 | 40.60333 | 3.90968 | 14884 ft | 317 kts | 151° |
| 2026-04-30 19:32 | 40.58468 | 3.92456 | 14635 ft | 314 kts | 151° |
| 2026-04-30 19:32 | 40.56596 | 3.93949 | 14343 ft | 312 kts | 151° |
| 2026-04-30 19:32 | 40.54752 | 3.95418 | 14032 ft | 311 kts | 151° |
| 2026-04-30 19:32 | 40.52912 | 3.96882 | 13705 ft | 309 kts | 152° |
| 2026-04-30 19:33 | 40.51054 | 3.98324 | 13393 ft | 306 kts | 157° |
| 2026-04-30 19:33 | 40.49056 | 3.99089 | 13094 ft | 298 kts | 178° |
| 2026-04-30 19:33 | 40.47031 | 3.99056 | 12897 ft | 292 kts | 186° |
| 2026-04-30 19:33 | 40.45001 | 3.98865 | 12670 ft | 291 kts | 187° |
| 2026-04-30 19:34 | 40.42989 | 3.98654 | 12459 ft | 292 kts | 187° |
| 2026-04-30 19:34 | 40.40963 | 3.98443 | 12246 ft | 293 kts | 187° |
| 2026-04-30 19:34 | 40.36883 | 3.98041 | 11817 ft | 292 kts | 186° |
| 2026-04-30 19:35 | 40.34858 | 3.97850 | 11593 ft | 292 kts | 186° |
| 2026-04-30 19:35 | 40.32830 | 3.97661 | 11398 ft | 291 kts | 186° |
| 2026-04-30 19:35 | 40.30814 | 3.97476 | 11184 ft | 291 kts | 186° |
| 2026-04-30 19:35 | 40.28803 | 3.97293 | 10974 ft | 290 kts | 186° |
| 2026-04-30 19:36 | 40.26812 | 3.97113 | 10747 ft | 289 kts | 186° |
| 2026-04-30 19:36 | 40.24786 | 3.96930 | 10477 ft | 287 kts | 186° |
| 2026-04-30 19:36 | 40.20868 | 3.96579 | 10058 ft | 278 kts | 186° |
| 2026-04-30 19:37 | 40.18965 | 3.96409 | 9845 ft | 273 kts | 186° |
| 2026-04-30 19:37 | 40.17090 | 3.96241 | 9633 ft | 270 kts | 186° |
| 2026-04-30 19:37 | 40.15205 | 3.96071 | 9436 ft | 270 kts | 186° |
| 2026-04-30 19:37 | 40.13335 | 3.95903 | 9247 ft | 271 kts | 186° |
| 2026-04-30 19:38 | 40.11452 | 3.95734 | 9049 ft | 272 kts | 185° |
| 2026-04-30 19:38 | 40.09553 | 3.95564 | 8854 ft | 272 kts | 185° |
| 2026-04-30 19:38 | 40.07668 | 3.95395 | 8657 ft | 273 kts | 185° |
| 2026-04-30 19:38 | 40.05762 | 3.95225 | 8455 ft | 273 kts | 185° |
| 2026-04-30 19:39 | 40.03874 | 3.95057 | 8266 ft | 273 kts | 185° |
| 2026-04-30 19:39 | 40.01968 | 3.94887 | 8062 ft | 273 kts | 185° |
| 2026-04-30 19:39 | 40.00086 | 3.94719 | 7860 ft | 270 kts | 185° |
| 2026-04-30 19:39 | 39.98234 | 3.94554 | 7657 ft | 266 kts | 185° |
| 2026-04-30 19:40 | 39.97003 | 3.94444 | 7532 ft | 265 kts | 185° |
| 2026-04-30 19:40 | 39.94548 | 3.94225 | 7289 ft | 265 kts | 185° |
| 2026-04-30 19:40 | 39.93310 | 3.94115 | 7160 ft | 266 kts | 185° |
| 2026-04-30 19:40 | 39.91461 | 3.93951 | 6966 ft | 266 kts | 185° |
| 2026-04-30 19:41 | 39.89623 | 3.93758 | 6778 ft | 266 kts | 188° |
| 2026-04-30 19:41 | 39.87801 | 3.93490 | 6589 ft | 267 kts | 186° |
| 2026-04-30 19:41 | 39.85931 | 3.93364 | 6387 ft | 268 kts | 181° |
| 2026-04-30 19:41 | 39.84075 | 3.93471 | 6182 ft | 268 kts | 175° |
| 2026-04-30 19:42 | 39.82234 | 3.93823 | 5984 ft | 268 kts | 169° |
| 2026-04-30 19:42 | 39.80410 | 3.94406 | 5789 ft | 267 kts | 164° |
| 2026-04-30 19:42 | 39.78671 | 3.95173 | 5589 ft | 263 kts | 159° |
| 2026-04-30 19:42 | 39.77000 | 3.96115 | 5388 ft | 258 kts | 154° |
| 2026-04-30 19:43 | 39.75438 | 3.97201 | 5207 ft | 253 kts | 149° |
| 2026-04-30 19:43 | 39.73954 | 3.98442 | 5030 ft | 251 kts | 144° |
| 2026-04-30 19:43 | 39.72577 | 3.99806 | 4852 ft | 250 kts | 140° |
| 2026-04-30 19:44 | 39.70091 | 4.02940 | 4479 ft | 247 kts | 131° |
| 2026-04-30 19:44 | 39.69014 | 4.04663 | 4300 ft | 246 kts | 127° |
| 2026-04-30 19:44 | 39.68047 | 4.06485 | 4130 ft | 246 kts | 122° |
| 2026-04-30 19:44 | 39.67183 | 4.08423 | 3949 ft | 246 kts | 117° |
| 2026-04-30 19:45 | 39.66447 | 4.10417 | 3779 ft | 246 kts | 113° |
| 2026-04-30 19:45 | 39.65833 | 4.12476 | 3576 ft | 244 kts | 109° |
| 2026-04-30 19:45 | 39.65428 | 4.14600 | 3385 ft | 241 kts | 91° |
| 2026-04-30 19:45 | 39.65854 | 4.16597 | 3305 ft | 229 kts | 57° |
| 2026-04-30 19:46 | 39.67057 | 4.17848 | 3185 ft | 219 kts | 20° |
| 2026-04-30 19:46 | 39.68497 | 4.18195 | 3112 ft | 205 kts | 11° |
| 2026-04-30 19:46 | 39.69871 | 4.18477 | 3006 ft | 192 kts | 12° |
| 2026-04-30 19:46 | 39.71139 | 4.18742 | 2899 ft | 180 kts | 12° |
| 2026-04-30 19:47 | 39.72351 | 4.18994 | 2817 ft | 175 kts | 12° |
| 2026-04-30 19:47 | 39.73163 | 4.19163 | 2668 ft | 179 kts | 12° |
| 2026-04-30 19:47 | 39.74769 | 4.19494 | 2366 ft | 170 kts | 12° |
| 2026-04-30 19:47 | 39.75904 | 4.19727 | 2159 ft | 163 kts | 13° |
| 2026-04-30 19:48 | 39.77016 | 4.19958 | 1932 ft | 163 kts | 13° |
| 2026-04-30 19:48 | 39.78128 | 4.20188 | 1752 ft | 157 kts | 13° |
| 2026-04-30 19:48 | 39.79187 | 4.20406 | 1503 ft | 152 kts | 13° |
| 2026-04-30 19:48 | 39.80216 | 4.20619 | 1308 ft | 148 kts | 13° |
| 2026-04-30 19:49 | 39.81223 | 4.20828 | 1108 ft | 146 kts | 13° |
| 2026-04-30 19:49 | 39.83199 | 4.21238 | 703 ft | 142 kts | 12° |
| 2026-04-30 19:49 | 39.84175 | 4.21435 | 508 ft | 141 kts | 12° |
| 2026-04-30 19:50 | 39.85140 | 4.21635 | 323 ft | 139 kts | 11° |
| 2026-04-30 19:50 | 39.86022 | 4.21816 | 304 ft | 102 kts | 9° |
| 2026-04-30 19:50 | 39.86507 | 4.21916 | 302 ft | 40 kts | 9° |
| 2026-04-30 19:50 | 39.86684 | 4.21958 | 302 ft | 23 kts | 14° |
| 2026-04-30 19:51 | 39.86827 | 4.22047 | 300 ft | 22 kts | 34° |
| 2026-04-30 19:51 | 39.86895 | 4.22117 | 298 ft | 9 kts | 39° |
| 2026-04-30 19:51 | 39.86934 | 4.22173 | 299 ft | 8 kts | 72° |
| 2026-04-30 19:51 | 39.86907 | 4.22229 | 299 ft | 8 kts | 163° |
| 2026-04-30 19:52 | 39.86850 | 4.22225 | 298 ft | 8 kts | 188° |
| 2026-04-30 19:52 | 39.86796 | 4.22214 | 300 ft | 10 kts | 188° |
| 2026-04-30 19:52 | 39.86701 | 4.22194 | 295 ft | 16 kts | 189° |
| 2026-04-30 19:52 | 39.86595 | 4.22173 | 294 ft | 10 kts | 189° |
| 2026-04-30 19:53 | 39.86544 | 4.22222 | 292 ft | 12 kts | 100° |
| 2026-04-30 19:53 | 39.86526 | 4.22310 | 288 ft | 8 kts | 133° |
| 2026-04-30 19:53 | 39.86471 | 4.22317 | 287 ft | 7 kts | 188° |
| 2026-04-30 19:53 | 39.86435 | 4.22328 | 292 ft | 6 kts | 125° |
| 2026-04-30 19:54 | 39.86426 | 4.22383 | 285 ft | 0 kts | 99° |
| 2026-04-30 19:54 | 39.86425 | 4.22391 | 285 ft | 0 kts | 99° |